Time;durP1;ratioP1;P1;durP2;ratioP2;P2;SDS_P1;SDS_P2;PMS_P1;PMS_P2;Temp;Humidity;BMP_temperature;BMP_pressure;BME280_temperature;BME280_humidity;BME280_pressure;Samples;Min_cycle;Max_cycle;Signal;HPM_P1;HPM_P2
2023/03/05 00:01:13;;;;;;;98.07;55.08;;;4.30;99.90;;;;;;4937687;29;20126;-77
2023/03/05 00:03:39;;;;;;;95.60;53.55;;;4.40;99.90;;;;;;4937399;29;20031;-76
2023/03/05 00:06:05;;;;;;;118.47;75.95;;;4.30;99.90;;;;;;4937712;29;20134;-76
2023/03/05 00:08:32;;;;;;;146.50;91.75;;;4.30;99.90;;;;;;4937458;29;20446;-75
2023/03/05 00:11:00;;;;;;;139.60;93.13;;;4.30;99.90;;;;;;4937928;29;20052;-76
2023/03/05 00:13:26;;;;;;;165.93;112.78;;;4.30;99.90;;;;;;4935802;29;20020;-76
2023/03/05 00:15:52;;;;;;;118.93;76.72;;;4.30;99.90;;;;;;4937516;29;20027;-76
2023/03/05 00:18:18;;;;;;;105.75;58.03;;;4.30;99.90;;;;;;4937338;29;20031;-76
2023/03/05 00:20:45;;;;;;;105.18;57.40;;;4.30;99.90;;;;;;4937513;29;20112;-76
2023/03/05 00:23:10;;;;;;;113.35;64.45;;;4.30;99.90;;;;;;4939183;29;20416;-77
2023/03/05 00:25:37;;;;;;;116.47;71.13;;;4.30;99.90;;;;;;4941626;28;20035;-76
2023/03/05 00:28:03;;;;;;;122.75;65.75;;;4.30;99.90;;;;;;4942253;29;20032;-76
2023/03/05 00:30:30;;;;;;;119.85;66.22;;;4.30;99.90;;;;;;4919874;29;20028;-76
2023/03/05 00:32:56;;;;;;;102.82;65.35;;;4.20;99.90;;;;;;4920008;29;20020;-75
2023/03/05 00:35:22;;;;;;;103.95;62.17;;;4.30;99.90;;;;;;4915156;29;20043;-75
2023/03/05 00:37:48;;;;;;;104.13;60.15;;;4.30;99.90;;;;;;4928665;29;20039;-75
2023/03/05 00:40:14;;;;;;;95.25;59.47;;;4.30;99.90;;;;;;4936823;29;20044;-73
2023/03/05 00:42:40;;;;;;;98.53;52.15;;;4.30;99.90;;;;;;4920004;29;20119;-76
2023/03/05 00:45:08;;;;;;;86.22;48.38;;;4.30;99.90;;;;;;4919724;29;20115;-74
2023/03/05 00:47:34;;;;;;;79.65;47.83;;;4.30;99.90;;;;;;4936852;29;20035;-75
2023/03/05 00:50:00;;;;;;;92.13;51.58;;;4.30;99.90;;;;;;4919623;29;20114;-75
2023/03/05 00:52:26;;;;;;;91.78;49.38;;;4.30;99.90;;;;;;4918706;29;20106;-75
2023/03/05 00:54:52;;;;;;;93.35;49.30;;;4.40;99.90;;;;;;4936998;29;20463;-74
2023/03/05 00:57:18;;;;;;;93.55;46.80;;;4.40;99.90;;;;;;4936366;29;20027;-74
2023/03/05 00:59:44;;;;;;;81.85;45.80;;;4.40;99.90;;;;;;4936958;29;20048;-74
2023/03/05 01:02:10;;;;;;;84.47;46.85;;;4.50;99.90;;;;;;4919364;29;20493;-74
2023/03/05 01:04:36;;;;;;;90.50;44.78;;;4.50;99.90;;;;;;4935494;29;20469;-74
2023/03/05 01:07:04;;;;;;;88.50;48.28;;;4.50;99.90;;;;;;4936294;29;20079;-74
2023/03/05 01:09:30;;;;;;;78.47;42.85;;;4.50;99.90;;;;;;4936546;29;20035;-73
2023/03/05 01:11:56;;;;;;;86.95;48.33;;;4.50;99.90;;;;;;4935970;29;20038;-74
2023/03/05 01:14:22;;;;;;;79.93;45.70;;;4.50;99.90;;;;;;4925926;29;20040;-74
2023/03/05 01:16:48;;;;;;;79.28;45.83;;;4.60;99.90;;;;;;4917141;29;20038;-74
2023/03/05 01:19:15;;;;;;;82.18;45.65;;;4.60;99.90;;;;;;4902871;29;20036;-74
2023/03/05 01:21:41;;;;;;;85.53;46.40;;;4.70;99.90;;;;;;4928321;29;20036;-75
2023/03/05 01:24:07;;;;;;;78.28;46.08;;;4.70;99.90;;;;;;4915624;29;20084;-74
2023/03/05 01:26:33;;;;;;;84.70;46.13;;;4.70;99.90;;;;;;4928783;29;20131;-74
2023/03/05 01:28:59;;;;;;;84.90;43.85;;;4.70;99.90;;;;;;4919078;29;20110;-74
2023/03/05 01:31:25;;;;;;;77.90;43.63;;;4.80;99.90;;;;;;4936236;29;20028;-75
2023/03/05 01:33:52;;;;;;;85.18;44.03;;;4.80;99.90;;;;;;4918919;29;20027;-74
2023/03/05 01:36:18;;;;;;;73.07;42.80;;;4.80;99.90;;;;;;4934481;29;20039;-74
2023/03/05 01:38:46;;;;;;;81.90;43.05;;;4.80;99.90;;;;;;4935992;29;20027;-74
2023/03/05 01:41:13;;;;;;;72.97;41.75;;;4.80;99.90;;;;;;4918683;29;20039;-74
2023/03/05 01:43:40;;;;;;;80.68;42.08;;;4.80;99.90;;;;;;4935900;29;20020;-74
2023/03/05 01:46:12;;;;;;;75.10;40.63;;;4.80;99.90;;;;;;4935740;29;20046;-74
2023/03/05 01:48:43;;;;;;;72.50;40.42;;;4.80;99.90;;;;;;4935855;29;20481;-74
2023/03/05 01:51:09;;;;;;;69.82;39.40;;;4.80;99.90;;;;;;4935506;29;20043;-72
2023/03/05 01:53:35;;;;;;;71.45;40.33;;;4.80;99.90;;;;;;4918484;29;20028;-75
2023/03/05 01:56:02;;;;;;;59.72;39.05;;;4.80;99.90;;;;;;4934237;29;20039;-74
2023/03/05 01:58:28;;;;;;;75.38;42.05;;;4.80;99.90;;;;;;4934439;29;20047;-74
2023/03/05 02:00:54;;;;;;;68.03;41.05;;;4.70;99.90;;;;;;4934143;29;20078;-74
2023/03/05 02:03:22;;;;;;;75.93;41.97;;;4.70;99.90;;;;;;4935510;29;20039;-75
2023/03/05 02:05:48;;;;;;;80.88;41.95;;;4.70;99.90;;;;;;4935426;29;20055;-74
2023/03/05 02:08:18;;;;;;;72.47;43.95;;;4.80;99.90;;;;;;4935557;29;20159;-75
2023/03/05 02:10:50;;;;;;;73.50;41.28;;;4.70;99.90;;;;;;4935610;29;20462;-74
2023/03/05 02:13:21;;;;;;;75.13;40.30;;;4.70;99.90;;;;;;4935329;29;20027;-74
2023/03/05 02:15:48;;;;;;;69.43;38.38;;;4.70;99.90;;;;;;4935353;29;20043;-74
2023/03/05 02:18:16;;;;;;;65.82;40.08;;;4.70;99.90;;;;;;4935410;29;20079;-74
2023/03/05 02:21:09;;;;;;;79.28;41.55;;;4.70;99.90;;;;;;4933785;29;20032;-74
2023/03/05 02:23:36;;;;;;;63.45;39.08;;;4.60;99.90;;;;;;4934174;29;20031;-74
2023/03/05 02:26:08;;;;;;;69.45;42.00;;;4.60;99.90;;;;;;4933766;29;20082;-75
2023/03/05 02:28:45;;;;;;;79.00;42.97;;;4.50;99.90;;;;;;4934832;29;20462;-73
2023/03/05 02:31:15;;;;;;;89.82;50.72;;;4.60;99.90;;;;;;4935212;29;20023;-75
2023/03/05 02:33:41;;;;;;;89.80;56.58;;;4.60;99.90;;;;;;4934996;29;20560;-74
2023/03/05 02:36:08;;;;;;;82.78;51.33;;;4.60;99.90;;;;;;4917825;29;20114;-74
2023/03/05 02:38:34;;;;;;;80.45;47.05;;;4.50;99.90;;;;;;4934886;29;20036;-74
2023/03/05 02:41:00;;;;;;;74.10;44.33;;;4.40;99.90;;;;;;4934660;29;20047;-73
2023/03/05 02:43:26;;;;;;;79.82;45.03;;;4.40;99.90;;;;;;4933828;29;20032;-74
2023/03/05 02:45:52;;;;;;;77.57;44.63;;;4.30;99.90;;;;;;4917863;29;20030;-74
2023/03/05 02:48:18;;;;;;;72.38;41.75;;;4.30;99.90;;;;;;4935095;29;20031;-75
2023/03/05 02:50:46;;;;;;;83.78;44.10;;;4.10;99.90;;;;;;4933206;29;20034;-73
2023/03/05 02:53:11;;;;;;;75.78;43.55;;;4.00;99.90;;;;;;4935003;29;20409;-74
2023/03/05 02:55:38;;;;;;;89.13;43.08;;;4.00;99.90;;;;;;4933481;29;20486;-74
2023/03/05 02:58:04;;;;;;;82.55;44.10;;;3.90;99.90;;;;;;4933328;29;20031;-73
2023/03/05 03:00:30;;;;;;;74.10;43.17;;;3.90;99.90;;;;;;4917476;29;20118;-74
2023/03/05 03:02:56;;;;;;;74.82;43.55;;;3.80;99.90;;;;;;4934704;29;20091;-72
2023/03/05 03:05:22;;;;;;;72.55;42.78;;;3.80;99.90;;;;;;4947243;28;20020;-74
2023/03/05 03:07:48;;;;;;;75.50;40.35;;;3.70;99.90;;;;;;4932833;29;20485;-74
2023/03/05 03:10:14;;;;;;;69.97;39.40;;;3.60;99.90;;;;;;4932542;29;20035;-73
2023/03/05 03:12:43;;;;;;;77.03;42.55;;;3.60;99.90;;;;;;4934233;29;20030;-74
2023/03/05 03:15:13;;;;;;;71.38;43.60;;;3.60;99.90;;;;;;4934989;29;20375;-75
2023/03/05 03:17:39;;;;;;;75.05;39.95;;;3.50;99.90;;;;;;4940909;29;20091;-75
2023/03/05 03:20:07;;;;;;;72.25;41.00;;;3.40;99.90;;;;;;4940876;29;20039;-75
2023/03/05 03:22:33;;;;;;;66.93;41.17;;;3.40;99.90;;;;;;4940640;29;20102;-75
2023/03/05 03:25:00;;;;;;;72.18;39.75;;;3.30;99.90;;;;;;4940624;29;20367;-74
2023/03/05 03:27:26;;;;;;;67.05;39.58;;;3.30;99.90;;;;;;4940446;29;20032;-75
2023/03/05 03:29:52;;;;;;;68.13;37.85;;;3.30;99.90;;;;;;4940807;29;20039;-75
2023/03/05 03:32:18;;;;;;;76.68;40.15;;;3.20;99.90;;;;;;4940875;29;20035;-75
2023/03/05 03:34:43;;;;;;;66.25;39.63;;;3.20;99.90;;;;;;4940473;29;20073;-77
2023/03/05 03:37:15;;;;;;;70.63;38.28;;;3.20;99.90;;;;;;4950440;28;20493;-76
2023/03/05 03:39:41;;;;;;;72.60;39.05;;;3.10;99.90;;;;;;4959343;29;20477;-76
2023/03/05 03:42:07;;;;;;;69.68;38.83;;;3.10;99.90;;;;;;4944693;29;20058;-76
2023/03/05 03:44:33;;;;;;;65.05;38.83;;;3.10;99.90;;;;;;4940713;29;20056;-75
2023/03/05 03:46:58;;;;;;;61.00;34.85;;;3.10;99.90;;;;;;4940803;29;20032;-75
2023/03/05 03:49:25;;;;;;;58.45;35.10;;;3.10;99.90;;;;;;4940584;29;20023;-76
2023/03/05 03:51:57;;;;;;;64.32;36.08;;;3.10;99.90;;;;;;4940538;29;20063;-74
2023/03/05 03:54:24;;;;;;;61.92;35.38;;;3.00;99.90;;;;;;4940678;29;20122;-75
2023/03/05 03:56:50;;;;;;;70.75;34.35;;;3.00;99.90;;;;;;4940395;29;20028;-74
2023/03/05 03:59:16;;;;;;;72.22;36.80;;;2.90;99.90;;;;;;4940828;29;20028;-75
2023/03/05 04:01:42;;;;;;;60.88;35.28;;;2.90;99.90;;;;;;4940073;29;20102;-76
2023/03/05 04:04:10;;;;;;;56.90;34.05;;;2.90;99.90;;;;;;4940638;29;20026;-76
2023/03/05 04:06:36;;;;;;;60.10;32.47;;;2.90;99.90;;;;;;4939728;29;20048;-76
2023/03/05 04:09:03;;;;;;;56.40;34.97;;;2.90;99.90;;;;;;4940342;29;20114;-75
2023/03/05 04:11:29;;;;;;;50.58;31.75;;;3.00;99.90;;;;;;4940322;29;20131;-77
2023/03/05 04:13:55;;;;;;;61.03;34.63;;;2.90;99.90;;;;;;4940253;29;20528;-73
2023/03/05 04:16:20;;;;;;;62.40;33.17;;;2.90;99.90;;;;;;4940578;29;20505;-75
2023/03/05 04:18:46;;;;;;;65.47;34.30;;;3.00;99.90;;;;;;4939951;29;20541;-75
2023/03/05 04:21:12;;;;;;;53.15;31.83;;;3.00;99.90;;;;;;4940163;29;20110;-75
2023/03/05 04:23:38;;;;;;;54.00;30.95;;;3.00;99.90;;;;;;4940189;29;20023;-75
2023/03/05 04:26:05;;;;;;;55.05;32.55;;;3.00;99.90;;;;;;4940342;29;20023;-73
2023/03/05 04:28:32;;;;;;;56.38;31.80;;;3.00;99.90;;;;;;4936513;29;20051;-74
2023/03/05 04:30:57;;;;;;;56.13;31.77;;;3.00;99.90;;;;;;4936349;29;20024;-75
2023/03/05 04:33:23;;;;;;;55.35;32.90;;;3.00;99.90;;;;;;4937214;29;20034;-74
2023/03/05 04:35:50;;;;;;;61.20;32.72;;;3.00;99.90;;;;;;4937235;29;20087;-73
2023/03/05 04:38:16;;;;;;;54.10;33.28;;;3.10;99.90;;;;;;4936999;29;20023;-72
2023/03/05 04:40:43;;;;;;;60.42;32.67;;;3.10;99.90;;;;;;4936730;29;20496;-73
2023/03/05 04:43:08;;;;;;;56.65;32.75;;;3.10;99.90;;;;;;4936976;29;20095;-72
2023/03/05 04:45:34;;;;;;;57.17;30.48;;;3.00;99.90;;;;;;4936880;29;20479;-73
2023/03/05 04:48:00;;;;;;;49.50;30.27;;;3.10;99.90;;;;;;4937437;29;20111;-74
2023/03/05 04:50:26;;;;;;;57.90;30.88;;;3.10;99.90;;;;;;4936673;29;20399;-73
2023/03/05 04:52:52;;;;;;;56.30;31.85;;;3.20;99.90;;;;;;4936617;29;20397;-74
2023/03/05 04:55:18;;;;;;;54.08;30.83;;;3.20;99.90;;;;;;4936775;29;20540;-74
2023/03/05 04:57:44;;;;;;;65.18;33.00;;;3.20;99.90;;;;;;4936792;29;20118;-72
2023/03/05 05:00:13;;;;;;;64.47;35.80;;;3.20;99.90;;;;;;4936155;29;20413;-74
2023/03/05 05:02:43;;;;;;;60.38;34.72;;;3.30;99.90;;;;;;4936691;29;20114;-73
2023/03/05 05:05:12;;;;;;;49.60;28.77;;;3.30;99.90;;;;;;4936654;29;20160;-74
2023/03/05 05:07:38;;;;;;;46.17;26.17;;;3.30;99.90;;;;;;4936009;29;20074;-73
2023/03/05 05:10:06;;;;;;;42.58;22.83;;;3.30;99.90;;;;;;4936482;29;20482;-73
2023/03/05 05:12:33;;;;;;;36.47;22.85;;;3.40;99.90;;;;;;4936202;29;20043;-73
2023/03/05 05:14:59;;;;;;;38.55;22.23;;;3.40;99.90;;;;;;4936636;29;20517;-73
2023/03/05 05:17:25;;;;;;;37.70;21.23;;;3.40;99.90;;;;;;4936257;29;20415;-72
2023/03/05 05:19:51;;;;;;;35.30;20.13;;;3.50;99.90;;;;;;4936354;29;20064;-72
2023/03/05 05:22:17;;;;;;;38.53;20.35;;;3.50;99.90;;;;;;4935741;29;20047;-73
2023/03/05 05:24:43;;;;;;;29.20;17.60;;;3.50;99.90;;;;;;4936460;29;20027;-73
2023/03/05 05:27:09;;;;;;;34.08;19.27;;;3.50;99.90;;;;;;4935940;29;20047;-73
2023/03/05 05:29:35;;;;;;;33.70;18.20;;;3.60;99.90;;;;;;4935742;29;20071;-73
2023/03/05 05:32:00;;;;;;;33.75;17.10;;;3.60;99.90;;;;;;4936332;29;20024;-74
2023/03/05 05:34:26;;;;;;;30.65;16.02;;;3.70;99.90;;;;;;4935926;29;20426;-75
2023/03/05 05:36:52;;;;;;;32.58;19.55;;;3.70;99.90;;;;;;4936025;29;20027;-74
2023/03/05 05:39:19;;;;;;;26.75;15.50;;;3.90;99.90;;;;;;4935415;29;20052;-73
2023/03/05 05:41:44;;;;;;;27.90;16.50;;;4.10;99.90;;;;;;4934414;29;20063;-74
2023/03/05 05:44:10;;;;;;;30.77;16.20;;;4.00;99.90;;;;;;4935657;29;20020;-74
2023/03/05 05:46:36;;;;;;;29.52;16.95;;;4.00;99.90;;;;;;4936137;29;20032;-74
2023/03/05 05:49:02;;;;;;;29.85;17.05;;;3.90;99.90;;;;;;4935830;29;20028;-75
2023/03/05 05:51:28;;;;;;;31.70;16.27;;;4.00;99.90;;;;;;4935575;29;20560;-74
2023/03/05 05:53:54;;;;;;;31.10;16.73;;;4.00;99.90;;;;;;4935381;29;20106;-74
2023/03/05 05:56:19;;;;;;;29.30;17.83;;;4.00;99.90;;;;;;4935501;29;20028;-74
2023/03/05 05:58:46;;;;;;;35.33;20.45;;;4.00;99.90;;;;;;4935589;29;20036;-74
2023/03/05 06:01:27;;;;;;;35.78;19.98;;;4.10;99.90;;;;;;4935259;29;20090;-74
2023/03/05 06:03:53;;;;;;;33.30;18.88;;;4.00;99.90;;;;;;4934633;29;20023;-74
2023/03/05 06:06:20;;;;;;;35.90;21.40;;;4.10;99.90;;;;;;4933416;28;20526;-74
2023/03/05 06:08:47;;;;;;;35.63;20.10;;;4.10;99.90;;;;;;4934415;29;20039;-74
2023/03/05 06:11:13;;;;;;;32.45;19.88;;;4.10;99.90;;;;;;4934648;29;20040;-73
2023/03/05 06:13:39;;;;;;;35.70;20.83;;;4.10;99.90;;;;;;4935200;29;20382;-75
2023/03/05 06:16:08;;;;;;;35.70;19.95;;;4.20;99.90;;;;;;4930169;29;20036;-73
2023/03/05 06:18:34;;;;;;;35.38;20.40;;;4.20;99.90;;;;;;4934964;29;20478;-75
2023/03/05 06:21:03;;;;;;;43.60;21.75;;;4.30;99.90;;;;;;4935270;29;20143;-74
2023/03/05 06:23:29;;;;;;;38.50;19.67;;;4.30;99.90;;;;;;4935028;29;20031;-73
2023/03/05 06:25:59;;;;;;;33.33;21.15;;;4.40;99.90;;;;;;4935192;29;20038;-74
2023/03/05 06:28:25;;;;;;;29.58;18.17;;;4.30;99.90;;;;;;4935037;29;20051;-73
2023/03/05 06:30:59;;;;;;;35.42;20.30;;;4.40;99.90;;;;;;4935177;29;20500;-74
2023/03/05 06:33:25;;;;;;;38.47;22.02;;;4.50;99.90;;;;;;4935229;29;20055;-74
2023/03/05 06:35:51;;;;;;;35.13;22.35;;;4.50;99.90;;;;;;4934613;29;20418;-75
2023/03/05 06:38:17;;;;;;;42.33;23.73;;;4.50;99.90;;;;;;4935317;29;20367;-75
2023/03/05 06:40:42;;;;;;;44.15;24.35;;;4.50;99.90;;;;;;4934623;29;20046;-75
2023/03/05 06:43:08;;;;;;;47.08;24.45;;;4.60;99.90;;;;;;4935209;29;20027;-74
2023/03/05 06:45:34;;;;;;;42.33;24.00;;;4.60;99.90;;;;;;4934793;29;20059;-74
2023/03/05 06:48:00;;;;;;;45.65;25.02;;;4.60;99.90;;;;;;4934978;29;20036;-74
2023/03/05 06:50:26;;;;;;;48.20;25.88;;;4.70;99.90;;;;;;4933826;29;20030;-74
2023/03/05 06:52:52;;;;;;;51.60;26.17;;;4.70;99.90;;;;;;4941856;29;20019;-73
2023/03/05 06:55:18;;;;;;;48.67;28.92;;;4.70;99.90;;;;;;4936483;29;20462;-74
2023/03/05 06:57:44;;;;;;;57.95;32.72;;;4.70;99.90;;;;;;4934548;29;20478;-74
2023/03/05 07:00:11;;;;;;;60.28;32.25;;;4.80;99.90;;;;;;4934626;29;20042;-74
2023/03/05 07:02:37;;;;;;;50.20;26.48;;;4.80;99.90;;;;;;4921942;29;20449;-73
2023/03/05 07:05:04;;;;;;;40.30;22.42;;;4.90;99.90;;;;;;4940689;29;20114;-74
2023/03/05 07:07:30;;;;;;;37.55;21.60;;;4.90;99.90;;;;;;4934354;29;20043;-73
2023/03/05 07:09:56;;;;;;;43.17;22.17;;;4.90;99.90;;;;;;4934554;29;20043;-74
2023/03/05 07:12:22;;;;;;;42.58;24.60;;;5.00;99.90;;;;;;4934006;29;20031;-76
2023/03/05 07:14:48;;;;;;;41.40;24.25;;;5.00;99.90;;;;;;4934353;29;20063;-74
2023/03/05 07:17:14;;;;;;;36.72;20.15;;;5.10;99.90;;;;;;4933808;29;20027;-74
2023/03/05 07:19:41;;;;;;;42.85;23.40;;;5.10;99.90;;;;;;4929641;29;20020;-74
2023/03/05 07:22:07;;;;;;;51.25;25.00;;;5.20;99.90;;;;;;4928050;29;20083;-72
2023/03/05 07:24:33;;;;;;;31.25;18.52;;;5.20;99.90;;;;;;4926737;29;20035;-76
2023/03/05 07:26:59;;;;;;;34.28;19.27;;;5.20;99.90;;;;;;4919190;29;20394;-76
2023/03/05 07:29:26;;;;;;;31.25;19.20;;;5.40;99.90;;;;;;4930414;29;20020;-74
2023/03/05 07:31:52;;;;;;;47.83;28.45;;;5.40;99.90;;;;;;4927391;29;20497;-76
2023/03/05 07:34:18;;;;;;;47.22;24.45;;;5.40;99.90;;;;;;4917326;29;20115;-74
2023/03/05 07:36:48;;;;;;;35.33;20.60;;;5.40;99.90;;;;;;4927192;29;20050;-74
2023/03/05 07:39:16;;;;;;;30.17;18.63;;;5.40;99.90;;;;;;4924503;29;20060;-73
2023/03/05 07:41:45;;;;;;;34.33;20.38;;;5.50;99.90;;;;;;4923597;29;20114;-74
2023/03/05 07:44:13;;;;;;;33.33;19.70;;;5.50;99.90;;;;;;4917093;29;20023;-74
2023/03/05 07:46:39;;;;;;;31.10;20.40;;;5.60;99.90;;;;;;4934208;29;20063;-75
2023/03/05 07:49:05;;;;;;;31.95;17.70;;;5.60;99.90;;;;;;4934171;29;20052;-74
2023/03/05 07:51:30;;;;;;;30.33;18.05;;;5.60;99.90;;;;;;4932959;29;20491;-76
2023/03/05 07:53:57;;;;;;;32.95;17.40;;;5.70;99.90;;;;;;4934090;29;20385;-73
2023/03/05 07:56:26;;;;;;;28.85;16.13;;;5.70;99.90;;;;;;4933597;29;20481;-74
2023/03/05 07:58:52;;;;;;;27.45;14.55;;;5.80;99.90;;;;;;4934381;29;20094;-73
2023/03/05 08:01:18;;;;;;;30.27;16.67;;;5.80;99.90;;;;;;4933585;29;20114;-73
2023/03/05 08:03:43;;;;;;;28.50;15.93;;;5.90;99.90;;;;;;4937201;29;20038;-74
2023/03/05 08:06:11;;;;;;;28.13;16.40;;;5.90;99.90;;;;;;4937658;29;20083;-74
2023/03/05 08:08:37;;;;;;;29.08;16.35;;;5.90;99.90;;;;;;4937393;29;20019;-75
2023/03/05 08:11:08;;;;;;;27.70;16.60;;;5.90;99.90;;;;;;4937857;29;20024;-74
2023/03/05 08:13:35;;;;;;;34.45;21.30;;;5.90;99.90;;;;;;4937425;29;20047;-71
2023/03/05 08:16:08;;;;;;;30.23;16.58;;;5.90;99.90;;;;;;4937662;29;20110;-74
2023/03/05 08:18:34;;;;;;;32.40;18.48;;;6.00;99.90;;;;;;4937432;29;20023;-71
2023/03/05 08:21:00;;;;;;;29.35;16.63;;;6.00;99.90;;;;;;4919870;29;20031;-76
2023/03/05 08:23:27;;;;;;;26.92;14.75;;;6.00;99.90;;;;;;4936222;29;20035;-75
2023/03/05 08:25:53;;;;;;;25.20;13.73;;;6.00;99.90;;;;;;4936285;29;20028;-72
2023/03/05 08:28:19;;;;;;;27.67;14.80;;;6.00;99.90;;;;;;4937361;29;20462;-75
2023/03/05 08:30:46;;;;;;;26.50;13.57;;;6.00;99.90;;;;;;4936743;29;20537;-73
2023/03/05 08:33:13;;;;;;;25.83;15.50;;;5.90;99.90;;;;;;4936884;29;20378;-75
2023/03/05 08:35:39;;;;;;;26.92;15.10;;;6.00;99.90;;;;;;4936528;29;20063;-73
2023/03/05 08:38:05;;;;;;;26.58;13.88;;;6.00;99.90;;;;;;4932692;29;20478;-75
2023/03/05 08:40:31;;;;;;;24.80;12.75;;;6.00;99.90;;;;;;4936230;29;20043;-73
2023/03/05 08:43:01;;;;;;;24.02;12.13;;;6.00;99.90;;;;;;4937160;29;20031;-74
2023/03/05 08:45:27;;;;;;;22.52;13.38;;;6.00;99.90;;;;;;4939124;29;20084;-74
2023/03/05 08:47:55;;;;;;;20.38;12.15;;;6.00;99.90;;;;;;4936859;29;20043;-74
2023/03/05 08:50:22;;;;;;;20.55;11.93;;;6.00;99.90;;;;;;4939490;29;20039;-75
2023/03/05 08:52:49;;;;;;;26.52;12.63;;;6.00;99.90;;;;;;4937668;29;20024;-74
2023/03/05 08:55:15;;;;;;;23.58;14.00;;;6.10;99.90;;;;;;4929246;29;20035;-75
2023/03/05 08:57:41;;;;;;;23.05;12.23;;;6.20;99.90;;;;;;4930453;29;20119;-74
2023/03/05 09:00:09;;;;;;;23.30;13.73;;;6.20;99.90;;;;;;4919892;29;20584;-75
2023/03/05 09:02:35;;;;;;;26.52;14.15;;;6.20;99.90;;;;;;4926259;29;20027;-75
2023/03/05 09:05:02;;;;;;;24.65;13.80;;;6.30;99.90;;;;;;4923510;29;20028;-74
2023/03/05 09:07:28;;;;;;;24.23;14.32;;;6.30;99.90;;;;;;4932870;29;20190;-74
2023/03/05 09:09:54;;;;;;;21.08;11.77;;;6.40;99.90;;;;;;4936235;29;20118;-77
2023/03/05 09:12:20;;;;;;;21.88;11.73;;;6.50;99.90;;;;;;4936095;29;20039;-73
2023/03/05 09:14:45;;;;;;;21.52;11.30;;;6.50;99.90;;;;;;4935158;29;20027;-76
2023/03/05 09:17:11;;;;;;;22.08;13.25;;;6.60;99.90;;;;;;4919675;29;20065;-77
2023/03/05 09:19:37;;;;;;;23.70;13.45;;;6.80;99.90;;;;;;4919140;29;20032;-77
2023/03/05 09:22:04;;;;;;;21.63;12.85;;;7.00;99.90;;;;;;4929419;29;20485;-75
2023/03/05 09:24:30;;;;;;;23.13;12.25;;;7.10;99.90;;;;;;4927120;29;20031;-75
2023/03/05 09:26:59;;;;;;;22.33;10.95;;;7.20;99.90;;;;;;4917600;29;20118;-76
2023/03/05 09:29:25;;;;;;;17.85;9.45;;;7.30;99.90;;;;;;4917163;29;20024;-76
2023/03/05 09:31:51;;;;;;;20.58;10.73;;;7.40;99.90;;;;;;4917264;29;20036;-75
2023/03/05 09:34:17;;;;;;;21.70;10.93;;;7.40;99.90;;;;;;4929507;29;20028;-75
2023/03/05 09:36:43;;;;;;;19.40;8.90;;;7.40;99.90;;;;;;4917044;29;20039;-73
2023/03/05 09:39:09;;;;;;;20.80;11.27;;;7.40;99.90;;;;;;4917083;29;20048;-76
2023/03/05 09:42:09;;;;;;;21.13;11.80;;;7.50;99.90;;;;;;4917240;29;20490;-74
2023/03/05 09:44:45;;;;;;;25.20;11.57;;;7.60;99.90;;;;;;4925230;29;20055;-76
2023/03/05 09:47:49;;;;;;;21.48;11.93;;;7.80;99.90;;;;;;4917071;29;20020;-76
2023/03/05 09:50:38;;;;;;;23.98;12.40;;;7.90;99.90;;;;;;4917032;29;20086;-76
2023/03/05 09:53:26;;;;;;;20.75;12.10;;;7.80;99.90;;;;;;4916486;29;20119;-76
2023/03/05 09:55:59;;;;;;;22.77;12.77;;;8.00;99.90;;;;;;4916483;29;20482;-73
2023/03/05 09:58:39;;;;;;;19.35;9.75;;;8.20;99.90;;;;;;4927183;29;20105;-76
2023/03/05 10:01:09;;;;;;;21.45;11.57;;;8.20;99.90;;;;;;4916445;29;20062;-75
2023/03/05 10:03:58;;;;;;;20.35;11.70;;;8.30;99.90;;;;;;4917337;29;20401;-76
2023/03/05 10:06:28;;;;;;;20.23;12.27;;;8.40;99.90;;;;;;4930056;29;20142;-76
2023/03/05 10:09:10;;;;;;;20.02;12.18;;;8.60;99.90;;;;;;4926186;29;20055;-76
2023/03/05 10:11:42;;;;;;;21.55;11.73;;;8.40;99.90;;;;;;4916403;29;20032;-75
2023/03/05 10:14:32;;;;;;;16.85;9.10;;;8.50;99.90;;;;;;4915894;29;20039;-74
2023/03/05 10:17:13;;;;;;;21.05;10.85;;;8.50;99.90;;;;;;4920037;29;20031;-76
2023/03/05 10:20:15;;;;;;;18.75;9.98;;;8.60;99.90;;;;;;4934034;29;20392;-76
2023/03/05 10:22:59;;;;;;;19.58;11.45;;;8.50;99.90;;;;;;4858066;29;20123;-75
2023/03/05 10:25:40;;;;;;;22.52;11.40;;;8.80;99.90;;;;;;4850063;29;20087;-74
2023/03/05 10:28:18;;;;;;;21.17;12.00;;;8.90;99.90;;;;;;4858048;29;20124;-75
2023/03/05 10:31:10;;;;;;;25.23;12.80;;;9.00;99.90;;;;;;4857691;29;20057;-75
2023/03/05 10:33:39;;;;;;;18.92;10.88;;;9.20;99.90;;;;;;4855016;29;20045;-75
2023/03/05 10:36:45;;;;;;;19.95;11.73;;;9.30;99.90;;;;;;4853777;29;20072;-74
2023/03/05 10:39:13;;;;;;;20.45;10.35;;;9.20;99.90;;;;;;4842822;29;20041;-76
2023/03/05 10:41:47;;;;;;;17.42;10.73;;;9.20;99.90;;;;;;4857597;29;20441;-76
2023/03/05 10:44:25;;;;;;;19.58;9.77;;;9.20;99.90;;;;;;4857849;29;20033;-76
2023/03/05 10:46:51;;;;;;;21.23;10.98;;;9.00;99.90;;;;;;4857666;29;20484;-76
2023/03/05 10:49:28;;;;;;;20.95;11.50;;;9.00;99.90;;;;;;4857603;29;20109;-75
2023/03/05 10:52:11;;;;;;;22.88;9.98;;;9.00;99.90;;;;;;4857925;29;20037;-75
2023/03/05 10:54:40;;;;;;;;;;;9.30;99.90;;;;;;4857834;29;20513;-76
2023/03/05 10:57:16;;;;;;;24.02;11.95;;;9.20;99.90;;;;;;4857318;29;19916;-75
2023/03/05 10:59:49;;;;;;;22.42;10.38;;;9.10;99.90;;;;;;4905767;29;20107;-74
2023/03/05 11:02:15;;;;;;;18.25;9.85;;;9.10;99.90;;;;;;4923941;29;20068;-75
2023/03/05 11:04:41;;;;;;;16.23;9.05;;;9.00;99.90;;;;;;4934013;29;20102;-73
2023/03/05 11:07:31;;;;;;;21.17;9.68;;;9.20;99.90;;;;;;4934373;29;20134;-77
2023/03/05 11:10:04;;;;;;;20.50;9.13;;;9.30;99.90;;;;;;4927549;29;20500;-74
2023/03/05 11:12:35;;;;;;;16.52;9.18;;;9.50;99.90;;;;;;4923888;29;20414;-76
2023/03/05 11:15:13;;;;;;;17.13;9.68;;;9.40;99.90;;;;;;4934262;29;20040;-74
2023/03/05 11:18:01;;;;;;;16.70;10.10;;;9.40;99.90;;;;;;4918578;29;20048;-76
2023/03/05 11:20:32;;;;;;;17.23;9.63;;;9.60;99.90;;;;;;4932789;29;20111;-75
2023/03/05 11:23:07;;;;;;;17.52;10.32;;;9.70;99.90;;;;;;4925558;29;20028;-76
2023/03/05 11:25:56;;;;;;;15.80;9.57;;;9.70;99.90;;;;;;4933511;29;20027;-76
2023/03/05 11:28:26;;;;;;;17.80;8.73;;;9.90;99.90;;;;;;4933472;29;20079;-76
2023/03/05 11:31:06;;;;;;;20.52;9.85;;;9.90;99.90;;;;;;4934330;29;20066;-73
2023/03/05 11:33:34;;;;;;;17.67;8.68;;;10.00;99.90;;;;;;4932909;29;20028;-76
2023/03/05 11:36:22;;;;;;;16.13;8.35;;;9.80;99.90;;;;;;4934520;29;20032;-76
2023/03/05 11:38:56;;;;;;;15.32;7.80;;;9.80;99.90;;;;;;4937980;29;20035;-73
2023/03/05 11:41:31;;;;;;;19.15;9.23;;;9.80;99.90;;;;;;4938014;29;20044;-74
2023/03/05 11:44:02;;;;;;;18.27;9.07;;;9.70;99.90;;;;;;4938325;29;20475;-75
2023/03/05 11:46:37;;;;;;;15.38;8.13;;;9.50;99.90;;;;;;4938178;29;20091;-75
2023/03/05 11:49:06;;;;;;;14.02;7.65;;;9.30;99.90;;;;;;4937768;29;20075;-73
2023/03/05 11:51:42;;;;;;;16.83;9.02;;;9.40;99.90;;;;;;4937985;29;20027;-75
2023/03/05 11:54:15;;;;;;;19.40;10.13;;;9.40;99.90;;;;;;4937787;29;20027;-74
2023/03/05 11:56:42;;;;;;;20.75;10.00;;;9.50;99.90;;;;;;4938317;29;20036;-75
2023/03/05 11:59:34;;;;;;;19.55;10.45;;;9.60;99.90;;;;;;4937445;29;20083;-76
2023/03/05 12:02:00;;;;;;;17.52;9.40;;;9.60;99.90;;;;;;4937216;29;20515;-78
2023/03/05 12:04:26;;;;;;;18.95;9.63;;;9.50;99.90;;;;;;4940500;29;20019;-74
2023/03/05 12:07:01;;;;;;;15.98;8.02;;;9.60;99.90;;;;;;4937049;29;20041;-74
2023/03/05 12:09:39;;;;;;;21.08;9.77;;;9.50;99.90;;;;;;4937848;29;20087;-78
2023/03/05 12:12:05;;;;;;;16.77;9.27;;;9.50;99.90;;;;;;4937454;29;20039;-75
2023/03/05 12:14:57;;;;;;;17.10;8.00;;;9.50;99.90;;;;;;4937365;29;20031;-78
2023/03/05 12:17:41;;;;;;;17.67;8.52;;;9.60;99.90;;;;;;4927894;29;20543;-76
2023/03/05 12:20:12;;;;;;;17.45;8.75;;;9.50;99.90;;;;;;4918969;29;20043;-75
2023/03/05 12:22:43;;;;;;;12.55;7.50;;;9.50;99.90;;;;;;4936506;29;20059;-74
2023/03/05 12:25:31;;;;;;;21.23;9.00;;;9.90;99.90;;;;;;4934669;29;20028;-75
2023/03/05 12:27:57;;;;;;;18.05;9.00;;;10.10;99.90;;;;;;4937107;29;20504;-74
2023/03/05 12:30:49;;;;;;;15.48;7.00;;;10.20;99.90;;;;;;4920121;29;20035;-75
2023/03/05 12:33:40;;;;;;;15.88;7.05;;;9.90;99.90;;;;;;4936792;29;20031;-75
2023/03/05 12:36:21;;;;;;;12.90;6.85;;;9.80;99.90;;;;;;4937124;29;20058;-75
2023/03/05 12:38:51;;;;;;;11.82;6.45;;;9.80;99.90;;;;;;4936551;29;20039;-73
2023/03/05 12:41:22;;;;;;;14.73;7.35;;;9.90;99.90;;;;;;4936607;29;20090;-75
2023/03/05 12:44:06;;;;;;;15.10;8.57;;;9.80;99.90;;;;;;4936834;29;20280;-75
2023/03/05 12:46:36;;;;;;;16.45;8.63;;;9.70;99.90;;;;;;4936809;29;20052;-77
2023/03/05 12:49:17;;;;;;;17.35;8.18;;;9.80;99.90;;;;;;4926290;29;20055;-76